sensor_id;sensor_type;location;lat;lon;timestamp;temperature;humidity
14049;DHT22;7099;53.922;10.728;2023-07-08T00:02:11;16.70;69.30
14049;DHT22;7099;53.922;10.728;2023-07-08T00:06:20;16.60;70.00
14049;DHT22;7099;53.922;10.728;2023-07-08T00:10:29;16.60;69.80
14049;DHT22;7099;53.922;10.728;2023-07-08T00:14:34;16.50;69.60
14049;DHT22;7099;53.922;10.728;2023-07-08T00:18:40;16.40;69.90
14049;DHT22;7099;53.922;10.728;2023-07-08T00:22:46;16.40;69.70
14049;DHT22;7099;53.922;10.728;2023-07-08T00:26:52;16.30;69.90
14049;DHT22;7099;53.922;10.728;2023-07-08T00:30:58;16.30;70.50
14049;DHT22;7099;53.922;10.728;2023-07-08T00:35:04;16.20;70.70
14049;DHT22;7099;53.922;10.728;2023-07-08T00:39:14;16.20;70.60
14049;DHT22;7099;53.922;10.728;2023-07-08T00:43:36;16.20;71.30
14049;DHT22;7099;53.922;10.728;2023-07-08T00:47:44;16.10;71.20
14049;DHT22;7099;53.922;10.728;2023-07-08T00:51:50;16.00;70.90
14049;DHT22;7099;53.922;10.728;2023-07-08T00:56:09;15.90;71.00
14049;DHT22;7099;53.922;10.728;2023-07-08T01:00:18;15.90;71.30
14049;DHT22;7099;53.922;10.728;2023-07-08T01:04:29;15.80;70.90
14049;DHT22;7099;53.922;10.728;2023-07-08T01:08:38;15.80;71.10
14049;DHT22;7099;53.922;10.728;2023-07-08T01:12:47;15.70;71.00
14049;DHT22;7099;53.922;10.728;2023-07-08T01:16:54;15.60;71.50
14049;DHT22;7099;53.922;10.728;2023-07-08T01:21:35;15.60;71.30
14049;DHT22;7099;53.922;10.728;2023-07-08T01:25:44;15.60;73.10
14049;DHT22;7099;53.922;10.728;2023-07-08T01:29:50;15.50;71.70
14049;DHT22;7099;53.922;10.728;2023-07-08T01:33:56;15.50;71.80
14049;DHT22;7099;53.922;10.728;2023-07-08T01:38:03;15.40;72.00
14049;DHT22;7099;53.922;10.728;2023-07-08T01:42:11;15.40;72.10
14049;DHT22;7099;53.922;10.728;2023-07-08T01:46:23;15.30;72.10
14049;DHT22;7099;53.922;10.728;2023-07-08T01:50:31;15.30;72.80
14049;DHT22;7099;53.922;10.728;2023-07-08T01:54:37;15.30;72.30
14049;DHT22;7099;53.922;10.728;2023-07-08T01:58:43;15.20;72.70
14049;DHT22;7099;53.922;10.728;2023-07-08T02:02:49;15.20;73.00
14049;DHT22;7099;53.922;10.728;2023-07-08T02:06:57;15.20;72.60
14049;DHT22;7099;53.922;10.728;2023-07-08T02:11:04;15.10;72.40
14049;DHT22;7099;53.922;10.728;2023-07-08T02:15:10;15.10;72.30
14049;DHT22;7099;53.922;10.728;2023-07-08T02:19:16;15.10;72.70
14049;DHT22;7099;53.922;10.728;2023-07-08T02:23:21;15.00;73.10
14049;DHT22;7099;53.922;10.728;2023-07-08T02:27:27;15.00;73.10
14049;DHT22;7099;53.922;10.728;2023-07-08T02:31:32;15.00;73.10
14049;DHT22;7099;53.922;10.728;2023-07-08T02:35:38;14.90;72.80
14049;DHT22;7099;53.922;10.728;2023-07-08T02:39:43;14.90;72.70
14049;DHT22;7099;53.922;10.728;2023-07-08T02:43:49;15.20;73.50
14049;DHT22;7099;53.922;10.728;2023-07-08T02:47:54;15.40;73.70
14049;DHT22;7099;53.922;10.728;2023-07-08T02:52:00;15.50;74.40
14049;DHT22;7099;53.922;10.728;2023-07-08T02:56:05;15.50;75.20
14049;DHT22;7099;53.922;10.728;2023-07-08T03:00:12;15.60;74.60
14049;DHT22;7099;53.922;10.728;2023-07-08T03:04:18;15.60;73.50
14049;DHT22;7099;53.922;10.728;2023-07-08T03:08:27;15.60;72.40
14049;DHT22;7099;53.922;10.728;2023-07-08T03:12:33;15.50;73.80
14049;DHT22;7099;53.922;10.728;2023-07-08T03:16:39;15.60;74.40
14049;DHT22;7099;53.922;10.728;2023-07-08T03:20:44;15.60;73.90
14049;DHT22;7099;53.922;10.728;2023-07-08T03:24:50;15.50;74.50
14049;DHT22;7099;53.922;10.728;2023-07-08T03:28:55;15.50;73.70
14049;DHT22;7099;53.922;10.728;2023-07-08T03:33:01;15.60;73.20
14049;DHT22;7099;53.922;10.728;2023-07-08T03:37:08;15.50;74.20
14049;DHT22;7099;53.922;10.728;2023-07-08T03:41:14;15.50;73.40
14049;DHT22;7099;53.922;10.728;2023-07-08T03:45:20;15.50;74.20
14049;DHT22;7099;53.922;10.728;2023-07-08T03:49:25;15.50;74.40
14049;DHT22;7099;53.922;10.728;2023-07-08T03:53:31;15.50;74.20
14049;DHT22;7099;53.922;10.728;2023-07-08T03:57:36;15.50;74.20
14049;DHT22;7099;53.922;10.728;2023-07-08T04:01:42;15.40;76.40
14049;DHT22;7099;53.922;10.728;2023-07-08T04:05:47;15.50;75.90
14049;DHT22;7099;53.922;10.728;2023-07-08T04:09:53;15.50;75.30
14049;DHT22;7099;53.922;10.728;2023-07-08T04:13:58;15.50;75.00
14049;DHT22;7099;53.922;10.728;2023-07-08T04:18:04;15.50;75.30
14049;DHT22;7099;53.922;10.728;2023-07-08T04:22:10;15.50;77.40
14049;DHT22;7099;53.922;10.728;2023-07-08T04:26:16;15.70;77.60
14049;DHT22;7099;53.922;10.728;2023-07-08T04:30:25;15.70;77.70
14049;DHT22;7099;53.922;10.728;2023-07-08T04:34:31;15.80;77.40
14049;DHT22;7099;53.922;10.728;2023-07-08T04:38:37;15.90;77.80
14049;DHT22;7099;53.922;10.728;2023-07-08T04:42:42;16.00;77.70
14049;DHT22;7099;53.922;10.728;2023-07-08T04:46:54;16.00;77.60
14049;DHT22;7099;53.922;10.728;2023-07-08T04:51:01;16.10;78.70
14049;DHT22;7099;53.922;10.728;2023-07-08T04:55:07;16.30;78.60
14049;DHT22;7099;53.922;10.728;2023-07-08T04:59:17;16.40;79.00
14049;DHT22;7099;53.922;10.728;2023-07-08T05:03:24;16.60;78.90
14049;DHT22;7099;53.922;10.728;2023-07-08T05:07:29;16.70;78.90
14049;DHT22;7099;53.922;10.728;2023-07-08T05:11:35;16.80;78.60
14049;DHT22;7099;53.922;10.728;2023-07-08T05:15:41;16.60;78.20
14049;DHT22;7099;53.922;10.728;2023-07-08T05:19:47;16.50;78.00
14049;DHT22;7099;53.922;10.728;2023-07-08T05:23:56;16.60;78.30
14049;DHT22;7099;53.922;10.728;2023-07-08T05:28:01;16.70;78.00
14049;DHT22;7099;53.922;10.728;2023-07-08T05:32:07;16.90;77.70
14049;DHT22;7099;53.922;10.728;2023-07-08T05:36:13;17.00;77.00
14049;DHT22;7099;53.922;10.728;2023-07-08T05:40:18;17.20;76.00
14049;DHT22;7099;53.922;10.728;2023-07-08T05:44:24;17.40;75.60
14049;DHT22;7099;53.922;10.728;2023-07-08T05:48:30;17.60;74.70
14049;DHT22;7099;53.922;10.728;2023-07-08T05:52:35;17.80;74.50
14049;DHT22;7099;53.922;10.728;2023-07-08T05:56:41;18.00;73.60
14049;DHT22;7099;53.922;10.728;2023-07-08T06:00:46;18.50;72.60
14049;DHT22;7099;53.922;10.728;2023-07-08T06:04:52;18.90;72.60
14049;DHT22;7099;53.922;10.728;2023-07-08T06:08:58;19.20;70.50
14049;DHT22;7099;53.922;10.728;2023-07-08T06:13:05;19.10;70.30
14049;DHT22;7099;53.922;10.728;2023-07-08T06:17:11;19.20;70.30
14049;DHT22;7099;53.922;10.728;2023-07-08T06:21:16;19.30;69.40
14049;DHT22;7099;53.922;10.728;2023-07-08T06:25:22;19.50;68.80
14049;DHT22;7099;53.922;10.728;2023-07-08T06:29:27;19.60;67.30
14049;DHT22;7099;53.922;10.728;2023-07-08T06:33:33;19.80;66.90
14049;DHT22;7099;53.922;10.728;2023-07-08T06:37:38;20.00;66.60
14049;DHT22;7099;53.922;10.728;2023-07-08T06:41:44;20.20;65.50
14049;DHT22;7099;53.922;10.728;2023-07-08T06:45:50;20.40;65.00
14049;DHT22;7099;53.922;10.728;2023-07-08T06:49:56;20.60;65.10
14049;DHT22;7099;53.922;10.728;2023-07-08T06:54:04;20.80;63.70
14049;DHT22;7099;53.922;10.728;2023-07-08T06:58:16;21.00;63.20
14049;DHT22;7099;53.922;10.728;2023-07-08T07:02:22;21.20;62.30
14049;DHT22;7099;53.922;10.728;2023-07-08T07:06:27;21.30;61.20
14049;DHT22;7099;53.922;10.728;2023-07-08T07:10:33;21.50;60.90
14049;DHT22;7099;53.922;10.728;2023-07-08T07:14:41;21.70;60.90
14049;DHT22;7099;53.922;10.728;2023-07-08T07:18:49;21.90;59.80
14049;DHT22;7099;53.922;10.728;2023-07-08T07:22:57;22.10;60.30
14049;DHT22;7099;53.922;10.728;2023-07-08T07:27:03;22.30;59.40
14049;DHT22;7099;53.922;10.728;2023-07-08T07:31:08;22.50;58.40
14049;DHT22;7099;53.922;10.728;2023-07-08T07:35:16;22.70;58.50
14049;DHT22;7099;53.922;10.728;2023-07-08T07:39:22;23.00;58.00
14049;DHT22;7099;53.922;10.728;2023-07-08T07:43:27;23.20;57.70
14049;DHT22;7099;53.922;10.728;2023-07-08T07:47:33;23.30;56.80
14049;DHT22;7099;53.922;10.728;2023-07-08T07:51:40;23.50;58.30
14049;DHT22;7099;53.922;10.728;2023-07-08T07:55:46;23.70;58.20
14049;DHT22;7099;53.922;10.728;2023-07-08T07:59:51;23.80;57.80
14049;DHT22;7099;53.922;10.728;2023-07-08T08:03:57;24.00;59.20
14049;DHT22;7099;53.922;10.728;2023-07-08T08:08:03;24.20;58.90
14049;DHT22;7099;53.922;10.728;2023-07-08T08:12:10;24.80;57.30
14049;DHT22;7099;53.922;10.728;2023-07-08T08:16:16;24.60;57.80
14049;DHT22;7099;53.922;10.728;2023-07-08T08:20:24;24.60;58.20
14049;DHT22;7099;53.922;10.728;2023-07-08T08:24:30;24.70;56.70
14049;DHT22;7099;53.922;10.728;2023-07-08T08:28:35;24.70;56.70
14049;DHT22;7099;53.922;10.728;2023-07-08T08:32:41;24.80;56.10
14049;DHT22;7099;53.922;10.728;2023-07-08T08:36:46;24.90;56.10
14049;DHT22;7099;53.922;10.728;2023-07-08T08:40:52;25.00;56.00
14049;DHT22;7099;53.922;10.728;2023-07-08T08:44:59;25.10;56.10
14049;DHT22;7099;53.922;10.728;2023-07-08T08:53:27;25.50;54.80
14049;DHT22;7099;53.922;10.728;2023-07-08T08:57:41;25.60;55.50
14049;DHT22;7099;53.922;10.728;2023-07-08T09:01:55;25.70;54.10
14049;DHT22;7099;53.922;10.728;2023-07-08T09:06:11;25.80;54.00
14049;DHT22;7099;53.922;10.728;2023-07-08T09:10:44;25.90;53.40
14049;DHT22;7099;53.922;10.728;2023-07-08T09:14:51;26.00;51.60
14049;DHT22;7099;53.922;10.728;2023-07-08T09:23:27;26.20;52.20
14049;DHT22;7099;53.922;10.728;2023-07-08T09:27:35;26.40;51.40
14049;DHT22;7099;53.922;10.728;2023-07-08T09:31:41;26.50;51.90
14049;DHT22;7099;53.922;10.728;2023-07-08T09:35:48;26.70;51.20
14049;DHT22;7099;53.922;10.728;2023-07-08T09:39:55;26.90;51.20
14049;DHT22;7099;53.922;10.728;2023-07-08T09:44:04;27.00;51.00
14049;DHT22;7099;53.922;10.728;2023-07-08T09:48:27;27.20;50.40
14049;DHT22;7099;53.922;10.728;2023-07-08T09:52:33;27.30;49.40
14049;DHT22;7099;53.922;10.728;2023-07-08T09:56:42;27.40;49.40
14049;DHT22;7099;53.922;10.728;2023-07-08T10:00:54;27.40;49.20
14049;DHT22;7099;53.922;10.728;2023-07-08T10:05:27;27.40;48.80
14049;DHT22;7099;53.922;10.728;2023-07-08T10:09:35;27.40;49.10
14049;DHT22;7099;53.922;10.728;2023-07-08T10:13:44;27.40;49.10
14049;DHT22;7099;53.922;10.728;2023-07-08T10:17:56;27.40;48.70
14049;DHT22;7099;53.922;10.728;2023-07-08T10:30:53;27.50;49.20
14049;DHT22;7099;53.922;10.728;2023-07-08T10:44:09;27.70;47.00
14049;DHT22;7099;53.922;10.728;2023-07-08T10:48:24;27.80;46.50
14049;DHT22;7099;53.922;10.728;2023-07-08T11:07:11;27.90;45.60
14049;DHT22;7099;53.922;10.728;2023-07-08T11:11:34;28.00;45.10
14049;DHT22;7099;53.922;10.728;2023-07-08T11:19:59;28.10;45.90
14049;DHT22;7099;53.922;10.728;2023-07-08T11:28:54;28.10;46.10
14049;DHT22;7099;53.922;10.728;2023-07-08T11:33:05;28.10;46.10
14049;DHT22;7099;53.922;10.728;2023-07-08T11:37:15;28.10;45.70
14049;DHT22;7099;53.922;10.728;2023-07-08T11:41:26;28.20;46.80
14049;DHT22;7099;53.922;10.728;2023-07-08T11:45:38;28.30;46.10
14049;DHT22;7099;53.922;10.728;2023-07-08T11:49:46;28.30;45.70
14049;DHT22;7099;53.922;10.728;2023-07-08T11:54:30;28.30;45.80
14049;DHT22;7099;53.922;10.728;2023-07-08T12:02:58;28.60;45.70
14049;DHT22;7099;53.922;10.728;2023-07-08T12:07:16;28.70;45.40
14049;DHT22;7099;53.922;10.728;2023-07-08T12:11:33;28.90;45.10
14049;DHT22;7099;53.922;10.728;2023-07-08T12:15:39;29.00;45.20
14049;DHT22;7099;53.922;10.728;2023-07-08T12:19:47;28.90;44.10
14049;DHT22;7099;53.922;10.728;2023-07-08T12:23:54;28.80;43.80
14049;DHT22;7099;53.922;10.728;2023-07-08T12:28:00;28.90;44.00
14049;DHT22;7099;53.922;10.728;2023-07-08T12:32:11;28.90;44.20
14049;DHT22;7099;53.922;10.728;2023-07-08T12:36:22;29.20;44.40
14049;DHT22;7099;53.922;10.728;2023-07-08T12:40:30;29.20;44.70
14049;DHT22;7099;53.922;10.728;2023-07-08T12:44:38;29.30;45.20
14049;DHT22;7099;53.922;10.728;2023-07-08T12:48:46;29.50;44.40
14049;DHT22;7099;53.922;10.728;2023-07-08T12:52:52;29.40;44.00
14049;DHT22;7099;53.922;10.728;2023-07-08T12:56:58;29.30;43.80
14049;DHT22;7099;53.922;10.728;2023-07-08T13:01:05;29.20;43.90
14049;DHT22;7099;53.922;10.728;2023-07-08T13:05:15;29.00;44.20
14049;DHT22;7099;53.922;10.728;2023-07-08T13:09:42;29.00;44.30
14049;DHT22;7099;53.922;10.728;2023-07-08T13:13:57;28.80;43.10
14049;DHT22;7099;53.922;10.728;2023-07-08T13:18:17;28.70;44.00
14049;DHT22;7099;53.922;10.728;2023-07-08T13:22:24;28.40;43.40
14049;DHT22;7099;53.922;10.728;2023-07-08T13:26:30;28.50;44.40
14049;DHT22;7099;53.922;10.728;2023-07-08T13:30:36;28.60;44.30
14049;DHT22;7099;53.922;10.728;2023-07-08T13:34:42;28.70;43.80
14049;DHT22;7099;53.922;10.728;2023-07-08T13:38:47;28.60;43.60
14049;DHT22;7099;53.922;10.728;2023-07-08T13:42:54;28.60;43.70
14049;DHT22;7099;53.922;10.728;2023-07-08T13:47:00;28.60;43.70
14049;DHT22;7099;53.922;10.728;2023-07-08T13:51:31;28.50;43.20
14049;DHT22;7099;53.922;10.728;2023-07-08T13:55:40;28.40;42.40
14049;DHT22;7099;53.922;10.728;2023-07-08T13:59:47;28.40;42.90
14049;DHT22;7099;53.922;10.728;2023-07-08T14:03:55;28.60;43.10
14049;DHT22;7099;53.922;10.728;2023-07-08T14:08:01;28.60;42.50
14049;DHT22;7099;53.922;10.728;2023-07-08T14:12:08;28.60;42.70
14049;DHT22;7099;53.922;10.728;2023-07-08T14:16:25;28.70;43.10
14049;DHT22;7099;53.922;10.728;2023-07-08T14:20:35;28.70;42.20
14049;DHT22;7099;53.922;10.728;2023-07-08T14:24:41;28.80;42.50
14049;DHT22;7099;53.922;10.728;2023-07-08T14:28:48;29.00;42.30
14049;DHT22;7099;53.922;10.728;2023-07-08T14:32:53;28.90;41.90
14049;DHT22;7099;53.922;10.728;2023-07-08T14:37:02;29.10;41.40
14049;DHT22;7099;53.922;10.728;2023-07-08T14:41:08;29.00;41.20
14049;DHT22;7099;53.922;10.728;2023-07-08T14:45:14;29.10;41.20
14049;DHT22;7099;53.922;10.728;2023-07-08T14:49:22;29.10;40.60
14049;DHT22;7099;53.922;10.728;2023-07-08T14:53:28;29.10;41.30
14049;DHT22;7099;53.922;10.728;2023-07-08T14:57:45;29.30;40.50
14049;DHT22;7099;53.922;10.728;2023-07-08T15:01:54;29.50;40.50
14049;DHT22;7099;53.922;10.728;2023-07-08T15:06:01;29.70;40.40
14049;DHT22;7099;53.922;10.728;2023-07-08T15:10:09;29.80;40.30
14049;DHT22;7099;53.922;10.728;2023-07-08T15:14:23;30.00;39.80
14049;DHT22;7099;53.922;10.728;2023-07-08T15:18:32;30.10;38.90
14049;DHT22;7099;53.922;10.728;2023-07-08T15:22:41;30.20;39.20
14049;DHT22;7099;53.922;10.728;2023-07-08T15:26:49;30.30;38.70
14049;DHT22;7099;53.922;10.728;2023-07-08T15:30:55;30.30;39.10
14049;DHT22;7099;53.922;10.728;2023-07-08T15:35:01;30.40;38.90
14049;DHT22;7099;53.922;10.728;2023-07-08T15:39:07;30.50;39.30
14049;DHT22;7099;53.922;10.728;2023-07-08T15:43:15;30.40;38.70
14049;DHT22;7099;53.922;10.728;2023-07-08T15:47:21;30.30;38.70
14049;DHT22;7099;53.922;10.728;2023-07-08T15:51:27;30.30;39.50
14049;DHT22;7099;53.922;10.728;2023-07-08T15:55:39;30.40;39.30
14049;DHT22;7099;53.922;10.728;2023-07-08T15:59:47;30.30;39.10
14049;DHT22;7099;53.922;10.728;2023-07-08T16:03:53;30.30;39.30
14049;DHT22;7099;53.922;10.728;2023-07-08T16:07:59;30.20;39.80
14049;DHT22;7099;53.922;10.728;2023-07-08T16:12:07;30.20;39.90
14049;DHT22;7099;53.922;10.728;2023-07-08T16:16:14;30.20;40.10
14049;DHT22;7099;53.922;10.728;2023-07-08T16:20:22;30.30;40.20
14049;DHT22;7099;53.922;10.728;2023-07-08T16:24:30;30.40;40.10
14049;DHT22;7099;53.922;10.728;2023-07-08T16:28:39;30.30;40.30
14049;DHT22;7099;53.922;10.728;2023-07-08T16:32:48;30.10;40.40
14049;DHT22;7099;53.922;10.728;2023-07-08T16:36:54;30.20;40.80
14049;DHT22;7099;53.922;10.728;2023-07-08T16:41:00;30.20;40.80
14049;DHT22;7099;53.922;10.728;2023-07-08T16:45:29;30.00;40.70
14049;DHT22;7099;53.922;10.728;2023-07-08T16:49:35;30.20;40.40
14049;DHT22;7099;53.922;10.728;2023-07-08T16:53:43;29.90;41.30
14049;DHT22;7099;53.922;10.728;2023-07-08T16:57:49;29.90;41.00
14049;DHT22;7099;53.922;10.728;2023-07-08T17:01:55;30.00;41.10
14049;DHT22;7099;53.922;10.728;2023-07-08T17:06:02;29.60;40.60
14049;DHT22;7099;53.922;10.728;2023-07-08T17:10:09;29.50;41.20
14049;DHT22;7099;53.922;10.728;2023-07-08T17:14:17;29.50;41.10
14049;DHT22;7099;53.922;10.728;2023-07-08T17:18:23;29.40;41.00
14049;DHT22;7099;53.922;10.728;2023-07-08T17:22:30;29.40;41.70
14049;DHT22;7099;53.922;10.728;2023-07-08T17:26:37;29.40;41.50
14049;DHT22;7099;53.922;10.728;2023-07-08T17:30:49;29.30;41.40
14049;DHT22;7099;53.922;10.728;2023-07-08T17:34:56;29.30;41.70
14049;DHT22;7099;53.922;10.728;2023-07-08T17:39:03;29.10;42.00
14049;DHT22;7099;53.922;10.728;2023-07-08T17:43:09;29.00;42.10
14049;DHT22;7099;53.922;10.728;2023-07-08T17:47:16;28.90;42.20
14049;DHT22;7099;53.922;10.728;2023-07-08T17:51:24;28.80;42.30
14049;DHT22;7099;53.922;10.728;2023-07-08T17:55:34;28.80;42.30
14049;DHT22;7099;53.922;10.728;2023-07-08T17:59:40;28.70;42.20
14049;DHT22;7099;53.922;10.728;2023-07-08T18:03:45;28.50;42.40
14049;DHT22;7099;53.922;10.728;2023-07-08T18:07:52;28.40;42.70
14049;DHT22;7099;53.922;10.728;2023-07-08T18:11:59;28.20;42.90
14049;DHT22;7099;53.922;10.728;2023-07-08T18:16:10;28.10;43.10
14049;DHT22;7099;53.922;10.728;2023-07-08T18:20:17;28.00;43.20
14049;DHT22;7099;53.922;10.728;2023-07-08T18:24:23;27.80;43.60
14049;DHT22;7099;53.922;10.728;2023-07-08T18:28:29;27.60;43.80
14049;DHT22;7099;53.922;10.728;2023-07-08T18:32:34;27.40;44.20
14049;DHT22;7099;53.922;10.728;2023-07-08T18:36:40;27.20;44.50
14049;DHT22;7099;53.922;10.728;2023-07-08T18:40:46;26.90;44.90
14049;DHT22;7099;53.922;10.728;2023-07-08T18:44:52;26.70;45.20
14049;DHT22;7099;53.922;10.728;2023-07-08T18:48:58;26.50;45.60
14049;DHT22;7099;53.922;10.728;2023-07-08T18:53:15;26.30;45.90
14049;DHT22;7099;53.922;10.728;2023-07-08T18:57:21;26.00;46.40
14049;DHT22;7099;53.922;10.728;2023-07-08T19:01:28;25.80;47.00
14049;DHT22;7099;53.922;10.728;2023-07-08T19:05:34;25.60;47.10
14049;DHT22;7099;53.922;10.728;2023-07-08T19:09:39;25.40;47.40
14049;DHT22;7099;53.922;10.728;2023-07-08T19:13:45;25.20;47.60
14049;DHT22;7099;53.922;10.728;2023-07-08T19:17:52;25.20;48.10
14049;DHT22;7099;53.922;10.728;2023-07-08T19:21:58;25.00;48.10
14049;DHT22;7099;53.922;10.728;2023-07-08T19:26:11;24.90;48.50
14049;DHT22;7099;53.922;10.728;2023-07-08T19:30:19;24.70;48.80
14049;DHT22;7099;53.922;10.728;2023-07-08T19:34:25;24.50;49.20
14049;DHT22;7099;53.922;10.728;2023-07-08T19:38:30;24.30;50.00
14049;DHT22;7099;53.922;10.728;2023-07-08T19:42:36;24.20;50.60
14049;DHT22;7099;53.922;10.728;2023-07-08T19:46:41;24.00;50.80
14049;DHT22;7099;53.922;10.728;2023-07-08T19:50:47;23.90;51.30
14049;DHT22;7099;53.922;10.728;2023-07-08T19:54:54;23.70;51.80
14049;DHT22;7099;53.922;10.728;2023-07-08T19:59:01;23.60;52.30
14049;DHT22;7099;53.922;10.728;2023-07-08T20:03:10;23.50;52.80
14049;DHT22;7099;53.922;10.728;2023-07-08T20:07:16;23.30;53.50
14049;DHT22;7099;53.922;10.728;2023-07-08T20:11:22;23.20;53.90
14049;DHT22;7099;53.922;10.728;2023-07-08T20:15:28;23.10;54.40
14049;DHT22;7099;53.922;10.728;2023-07-08T20:19:33;23.00;54.90
14049;DHT22;7099;53.922;10.728;2023-07-08T20:23:39;22.90;55.40
14049;DHT22;7099;53.922;10.728;2023-07-08T20:27:48;22.80;55.80
14049;DHT22;7099;53.922;10.728;2023-07-08T20:31:54;22.70;56.50
14049;DHT22;7099;53.922;10.728;2023-07-08T20:36:00;22.60;56.70
14049;DHT22;7099;53.922;10.728;2023-07-08T20:44:22;22.40;58.10
14049;DHT22;7099;53.922;10.728;2023-07-08T20:48:31;22.30;57.80
14049;DHT22;7099;53.922;10.728;2023-07-08T20:52:37;22.10;58.30
14049;DHT22;7099;53.922;10.728;2023-07-08T20:56:43;22.00;58.70
14049;DHT22;7099;53.922;10.728;2023-07-08T21:00:49;21.90;59.10
14049;DHT22;7099;53.922;10.728;2023-07-08T21:04:55;21.80;59.40
14049;DHT22;7099;53.922;10.728;2023-07-08T21:09:01;21.80;60.00
14049;DHT22;7099;53.922;10.728;2023-07-08T21:13:08;21.70;60.30
14049;DHT22;7099;53.922;10.728;2023-07-08T21:17:16;21.60;60.60
14049;DHT22;7099;53.922;10.728;2023-07-08T21:21:23;21.50;61.00
14049;DHT22;7099;53.922;10.728;2023-07-08T21:25:29;21.40;61.10
14049;DHT22;7099;53.922;10.728;2023-07-08T21:29:35;21.30;61.40
14049;DHT22;7099;53.922;10.728;2023-07-08T21:33:41;21.20;62.00
14049;DHT22;7099;53.922;10.728;2023-07-08T21:37:53;21.10;62.80
14049;DHT22;7099;53.922;10.728;2023-07-08T21:42:02;21.00;64.00
14049;DHT22;7099;53.922;10.728;2023-07-08T21:46:08;20.90;63.90
14049;DHT22;7099;53.922;10.728;2023-07-08T21:50:15;20.70;64.20
14049;DHT22;7099;53.922;10.728;2023-07-08T21:54:20;20.70;64.90
14049;DHT22;7099;53.922;10.728;2023-07-08T21:58:28;20.60;65.50
14049;DHT22;7099;53.922;10.728;2023-07-08T22:02:34;20.50;65.90
14049;DHT22;7099;53.922;10.728;2023-07-08T22:06:40;20.50;66.20
14049;DHT22;7099;53.922;10.728;2023-07-08T22:10:46;20.30;66.30
14049;DHT22;7099;53.922;10.728;2023-07-08T22:14:55;20.20;67.40
14049;DHT22;7099;53.922;10.728;2023-07-08T22:19:02;20.60;67.00
14049;DHT22;7099;53.922;10.728;2023-07-08T22:23:10;20.30;66.60
14049;DHT22;7099;53.922;10.728;2023-07-08T22:27:19;20.10;67.10
14049;DHT22;7099;53.922;10.728;2023-07-08T22:31:30;19.90;67.30
14049;DHT22;7099;53.922;10.728;2023-07-08T22:35:39;19.80;68.00
14049;DHT22;7099;53.922;10.728;2023-07-08T22:39:45;19.70;68.10
14049;DHT22;7099;53.922;10.728;2023-07-08T22:43:51;19.60;68.10
14049;DHT22;7099;53.922;10.728;2023-07-08T22:47:58;19.50;68.10
14049;DHT22;7099;53.922;10.728;2023-07-08T22:52:04;19.40;68.20
14049;DHT22;7099;53.922;10.728;2023-07-08T22:56:15;19.80;68.70
14049;DHT22;7099;53.922;10.728;2023-07-08T23:00:23;20.00;68.30
14049;DHT22;7099;53.922;10.728;2023-07-08T23:04:30;20.00;67.80
14049;DHT22;7099;53.922;10.728;2023-07-08T23:08:36;20.00;67.60
14049;DHT22;7099;53.922;10.728;2023-07-08T23:12:42;19.90;67.70
14049;DHT22;7099;53.922;10.728;2023-07-08T23:16:49;19.90;67.70
14049;DHT22;7099;53.922;10.728;2023-07-08T23:20:55;19.90;67.60
14049;DHT22;7099;53.922;10.728;2023-07-08T23:25:01;19.80;67.90
14049;DHT22;7099;53.922;10.728;2023-07-08T23:29:37;19.80;67.80
14049;DHT22;7099;53.922;10.728;2023-07-08T23:33:44;19.70;67.80
14049;DHT22;7099;53.922;10.728;2023-07-08T23:37:51;19.60;68.40
14049;DHT22;7099;53.922;10.728;2023-07-08T23:41:58;19.60;68.60
14049;DHT22;7099;53.922;10.728;2023-07-08T23:46:04;19.50;68.10
14049;DHT22;7099;53.922;10.728;2023-07-08T23:50:21;19.40;68.40
14049;DHT22;7099;53.922;10.728;2023-07-08T23:54:35;19.40;68.50
14049;DHT22;7099;53.922;10.728;2023-07-08T23:58:42;19.30;68.70
